createdAt,value
2017-11-24T00:00:40.452Z,11.63
2017-11-24T00:03:07.980Z,11.10
2017-11-24T00:05:35.480Z,10.90
2017-11-24T00:08:02.975Z,11.07
2017-11-24T00:10:30.476Z,10.60
2017-11-24T00:12:57.998Z,12.57
2017-11-24T00:15:25.535Z,14.67
2017-11-24T00:17:53.061Z,12.10
2017-11-24T00:20:20.560Z,11.40
2017-11-24T00:22:48.090Z,12.03
2017-11-24T00:25:15.644Z,12.40
2017-11-24T00:27:43.155Z,12.10
2017-11-24T00:30:10.662Z,11.00
2017-11-24T00:32:38.179Z,10.73
2017-11-24T00:35:05.706Z,11.30
2017-11-24T00:37:44.957Z,9.50
2017-11-24T00:40:12.452Z,9.90
2017-11-24T00:42:39.952Z,9.90
2017-11-24T00:45:07.477Z,9.30
2017-11-24T00:47:35.181Z,8.93
2017-11-24T00:50:02.708Z,9.67
2017-11-24T00:52:30.294Z,10.50
2017-11-24T00:54:57.799Z,11.17
2017-11-24T00:57:25.316Z,9.67
2017-11-24T00:59:52.820Z,9.70
2017-11-24T01:02:20.725Z,10.40
2017-11-24T01:04:48.272Z,10.10
2017-11-24T01:07:15.780Z,13.80
2017-11-24T01:09:43.293Z,10.20
2017-11-24T01:12:10.804Z,10.07
2017-11-24T01:14:38.326Z,10.37
2017-11-24T01:17:05.822Z,9.20
2017-11-24T01:19:33.320Z,9.90
2017-11-24T01:22:00.822Z,9.30
2017-11-24T01:24:28.347Z,9.40
2017-11-24T01:26:55.856Z,11.23
2017-11-24T01:29:23.375Z,10.20
2017-11-24T01:31:50.871Z,11.00
2017-11-24T01:34:18.366Z,11.20
2017-11-24T01:36:45.865Z,10.27
2017-11-24T01:39:13.363Z,11.50
2017-11-24T01:41:40.876Z,9.47
2017-11-24T01:44:08.406Z,11.23
2017-11-24T01:46:35.958Z,11.00
2017-11-24T01:49:03.465Z,10.50
2017-11-24T01:51:30.964Z,11.90
2017-11-24T01:53:58.464Z,9.63
2017-11-24T01:56:25.960Z,8.77
2017-11-24T01:58:53.475Z,9.80
2017-11-24T02:01:20.980Z,10.13
2017-11-24T02:03:48.497Z,9.33
2017-11-24T02:06:15.998Z,9.63
2017-11-24T02:08:43.503Z,10.60
2017-11-24T02:11:12.690Z,10.50
2017-11-24T02:13:40.198Z,9.10
2017-11-24T02:16:07.727Z,11.03
2017-11-24T02:18:35.233Z,11.00
2017-11-24T02:21:02.743Z,10.77
2017-11-24T02:23:30.253Z,11.40
2017-11-24T02:25:57.765Z,11.13
2017-11-24T02:28:25.283Z,12.37
2017-11-24T02:30:52.780Z,12.67
2017-11-24T02:33:20.297Z,10.80
2017-11-24T02:35:47.813Z,10.60
2017-11-24T02:38:15.342Z,10.83
2017-11-24T02:40:42.838Z,7.70
2017-11-24T02:43:10.935Z,9.20
2017-11-24T02:45:38.453Z,11.30
2017-11-24T02:48:05.947Z,9.70
2017-11-24T02:50:33.460Z,10.90
2017-11-24T02:53:00.975Z,9.63
2017-11-24T02:55:29.376Z,10.30
2017-11-24T02:57:57.518Z,9.60
2017-11-24T03:00:25.033Z,9.13
2017-11-24T03:02:52.565Z,10.27
2017-11-24T03:05:20.070Z,10.50
2017-11-24T03:07:47.576Z,11.40
2017-11-24T03:10:15.067Z,9.80
2017-11-24T03:12:42.568Z,10.13
2017-11-24T03:15:10.090Z,9.90
2017-11-24T03:17:37.587Z,8.83
2017-11-24T03:20:05.100Z,10.23
2017-11-24T03:22:32.640Z,9.80
2017-11-24T03:25:00.145Z,10.40
2017-11-24T03:27:27.644Z,9.03
2017-11-24T03:29:55.148Z,9.00
2017-11-24T03:32:22.647Z,9.97
2017-11-24T03:34:50.159Z,8.43
2017-11-24T03:37:17.655Z,8.80
2017-11-24T03:39:45.140Z,8.07
2017-11-24T03:42:12.648Z,8.20
2017-11-24T03:44:40.139Z,7.10
2017-11-24T03:47:07.660Z,7.83
2017-11-24T03:49:35.168Z,8.17
2017-11-24T03:52:02.664Z,11.13
2017-11-24T03:54:30.166Z,7.07
2017-11-24T03:56:57.678Z,6.67
2017-11-24T03:59:25.190Z,6.77
2017-11-24T04:01:52.689Z,7.83
2017-11-24T04:04:20.192Z,6.33
2017-11-24T04:06:47.683Z,5.53
2017-11-24T04:09:15.163Z,6.43
2017-11-24T04:11:42.673Z,5.97
2017-11-24T04:14:10.182Z,6.87
2017-11-24T04:16:37.674Z,5.67
2017-11-24T04:19:05.165Z,6.60
2017-11-24T04:21:32.663Z,5.80
2017-11-24T04:24:00.352Z,5.97
2017-11-24T04:26:27.856Z,6.03
2017-11-24T04:28:55.354Z,6.27
2017-11-24T04:31:22.862Z,6.93
2017-11-24T04:33:50.362Z,6.53
2017-11-24T04:36:17.854Z,6.70
2017-11-24T04:38:45.353Z,6.30
2017-11-24T04:41:12.850Z,7.40
2017-11-24T04:43:40.362Z,8.53
2017-11-24T04:48:43.156Z,7.83
2017-11-24T04:51:17.423Z,8.10
2017-11-24T04:53:44.934Z,7.00
2017-11-24T04:56:12.433Z,6.93
2017-11-24T04:58:39.931Z,8.00
2017-11-24T05:01:07.439Z,7.20
2017-11-24T05:03:34.951Z,7.90
2017-11-24T05:06:02.457Z,7.43
2017-11-24T05:08:29.965Z,7.40
2017-11-24T05:10:57.486Z,7.50
2017-11-24T05:13:24.982Z,7.30
2017-11-24T05:15:52.483Z,7.30
2017-11-24T05:18:19.974Z,8.70
2017-11-24T05:20:47.496Z,7.50
2017-11-24T05:23:15.031Z,8.30
2017-11-24T05:25:42.525Z,9.07
2017-11-24T05:28:10.028Z,10.07
2017-11-24T05:30:37.537Z,11.00
2017-11-24T05:33:05.039Z,12.17
2017-11-24T05:35:32.540Z,10.90
2017-11-24T05:38:00.057Z,8.50
2017-11-24T05:40:27.571Z,9.17
2017-11-24T05:42:56.144Z,20.40
2017-11-24T05:45:23.647Z,13.07
2017-11-24T05:47:51.164Z,12.47
2017-11-24T05:50:18.655Z,9.17
2017-11-24T05:52:46.160Z,11.00
2017-11-24T05:55:13.668Z,10.00
2017-11-24T05:57:41.163Z,8.20
2017-11-24T06:00:08.682Z,7.60
2017-11-24T06:02:36.180Z,8.83
2017-11-24T06:05:03.678Z,7.90
2017-11-24T06:07:31.179Z,13.13
2017-11-24T06:09:58.690Z,9.20
2017-11-24T06:12:26.180Z,8.60
2017-11-24T06:14:53.673Z,9.40
2017-11-24T06:17:21.180Z,10.90
2017-11-24T06:19:48.692Z,12.70
2017-11-24T06:22:16.211Z,9.50
2017-11-24T06:24:43.739Z,11.57
2017-11-24T06:27:11.373Z,13.60
2017-11-24T06:29:38.897Z,11.43
2017-11-24T06:32:06.419Z,12.30
2017-11-24T06:34:33.938Z,12.70
2017-11-24T06:37:01.439Z,11.50
2017-11-24T06:39:28.958Z,10.47
2017-11-24T06:41:56.467Z,8.90
2017-11-24T06:44:23.951Z,9.80
2017-11-24T06:46:51.482Z,8.90
2017-11-24T06:49:18.978Z,18.50
2017-11-24T06:51:46.488Z,11.40
2017-11-24T06:54:13.996Z,11.33
2017-11-24T06:56:41.490Z,11.63
2017-11-24T06:59:09.028Z,10.60
2017-11-24T07:01:36.530Z,10.73
2017-11-24T07:04:04.063Z,10.20
2017-11-24T07:06:31.560Z,9.67
2017-11-24T07:08:59.073Z,8.03
2017-11-24T07:11:26.579Z,9.63
2017-11-24T07:13:54.838Z,9.00
2017-11-24T07:16:22.369Z,11.30
2017-11-24T07:18:49.879Z,9.30
2017-11-24T07:21:17.385Z,10.23
2017-11-24T07:23:44.879Z,9.10
2017-11-24T07:26:12.383Z,8.47
2017-11-24T07:28:39.881Z,9.20
2017-11-24T07:31:07.389Z,9.13
2017-11-24T07:33:34.897Z,9.33
2017-11-24T07:36:02.390Z,8.53
2017-11-24T07:38:29.911Z,9.03
2017-11-24T07:40:57.412Z,9.60
2017-11-24T07:43:24.933Z,9.70
2017-11-24T07:45:52.514Z,8.70
2017-11-24T07:48:20.030Z,8.70
2017-11-24T07:50:47.624Z,8.03
2017-11-24T07:53:15.144Z,9.87
2017-11-24T07:55:42.661Z,7.97
2017-11-24T07:58:10.173Z,6.20
2017-11-24T08:00:37.698Z,8.07
2017-11-24T08:03:05.191Z,7.60
2017-11-24T08:05:32.738Z,9.07
2017-11-24T08:08:00.237Z,7.20
2017-11-24T08:10:27.747Z,9.07
2017-11-24T08:12:55.271Z,9.30
2017-11-24T08:15:22.775Z,8.43
2017-11-24T08:17:50.283Z,10.07
2017-11-24T08:20:17.801Z,7.43
2017-11-24T08:22:45.300Z,7.13
2017-11-24T08:25:12.815Z,8.37
2017-11-24T08:27:40.317Z,8.33
2017-11-24T08:30:07.833Z,9.87
2017-11-24T08:32:35.358Z,12.83
2017-11-24T08:35:03.841Z,14.37
2017-11-24T08:37:31.340Z,14.07
2017-11-24T08:39:58.859Z,13.30
2017-11-24T08:42:26.362Z,14.33
2017-11-24T08:44:53.880Z,12.33
2017-11-24T08:47:27.703Z,11.47
2017-11-24T08:49:55.206Z,12.00
2017-11-24T08:52:22.720Z,12.10
2017-11-24T08:54:50.232Z,11.83
2017-11-24T08:57:17.766Z,10.30
2017-11-24T08:59:45.291Z,19.73
2017-11-24T09:02:12.802Z,13.83
2017-11-24T09:04:40.301Z,9.60
2017-11-24T09:07:07.799Z,7.97
2017-11-24T09:09:35.337Z,12.00
2017-11-24T09:12:02.840Z,8.97
2017-11-24T09:14:30.352Z,9.30
2017-11-24T09:16:57.999Z,9.53
2017-11-24T09:19:25.545Z,8.90
2017-11-24T09:21:53.050Z,7.30
2017-11-24T09:24:20.548Z,6.40
2017-11-24T09:26:48.054Z,7.97
2017-11-24T09:29:15.548Z,8.73
2017-11-24T09:31:43.082Z,6.30
2017-11-24T09:34:10.597Z,7.53
2017-11-24T09:36:38.089Z,8.07
2017-11-24T09:39:05.594Z,13.77
2017-11-24T09:41:33.118Z,11.17
2017-11-24T09:44:00.622Z,6.10
2017-11-24T09:46:28.118Z,9.87
2017-11-24T09:48:55.728Z,17.60
2017-11-24T09:51:23.269Z,18.03
2017-11-24T09:53:50.803Z,18.80
2017-11-24T09:56:18.314Z,18.80
2017-11-24T09:58:45.837Z,10.60
2017-11-24T10:01:13.347Z,6.33
2017-11-24T10:03:40.868Z,4.70
2017-11-24T10:06:08.374Z,6.20
2017-11-24T10:08:35.891Z,4.13
2017-11-24T10:11:03.395Z,3.33
2017-11-24T10:13:30.900Z,4.13
2017-11-24T10:15:58.391Z,3.10
2017-11-24T10:18:25.887Z,3.77
2017-11-24T10:20:59.007Z,6.80
2017-11-24T10:23:26.506Z,5.13
2017-11-24T10:25:54.022Z,4.60
2017-11-24T10:28:21.534Z,13.20
2017-11-24T10:30:49.046Z,2.63
2017-11-24T10:33:16.543Z,2.70
2017-11-24T10:35:44.072Z,3.80
2017-11-24T10:38:11.575Z,3.43
2017-11-24T10:40:39.068Z,3.40
2017-11-24T10:43:06.599Z,2.60
2017-11-24T10:45:34.101Z,3.20
2017-11-24T10:48:01.599Z,2.67
2017-11-24T10:50:29.124Z,2.90
2017-11-24T10:52:56.652Z,2.97
2017-11-24T10:55:24.163Z,2.73
2017-11-24T10:57:51.718Z,2.80
2017-11-24T11:00:19.223Z,4.20
2017-11-24T11:02:46.728Z,3.60
2017-11-24T11:05:14.261Z,3.33
2017-11-24T11:07:41.771Z,2.67
2017-11-24T11:10:09.305Z,2.90
2017-11-24T11:12:36.823Z,2.60
2017-11-24T11:15:04.334Z,3.20
2017-11-24T11:17:31.865Z,2.47
2017-11-24T11:19:59.375Z,2.60
2017-11-24T11:22:26.871Z,2.40
2017-11-24T11:24:54.378Z,3.20
2017-11-24T11:27:21.871Z,5.67
2017-11-24T11:29:49.380Z,2.70
2017-11-24T11:32:16.898Z,2.87
2017-11-24T11:34:44.402Z,3.20
2017-11-24T11:37:11.909Z,2.73
2017-11-24T11:39:39.428Z,4.07
2017-11-24T11:42:06.935Z,3.10
2017-11-24T11:44:34.439Z,2.97
2017-11-24T11:47:01.978Z,3.40
2017-11-24T11:49:29.481Z,2.97
2017-11-24T11:51:56.998Z,3.07
2017-11-24T11:54:24.517Z,2.80
2017-11-24T11:56:52.023Z,3.37
2017-11-24T11:59:19.556Z,3.00
2017-11-24T12:01:47.058Z,3.30
2017-11-24T12:04:14.593Z,3.10
2017-11-24T12:06:42.088Z,2.60
2017-11-24T12:09:09.586Z,3.00
2017-11-24T12:11:37.095Z,2.90
2017-11-24T12:14:04.767Z,2.53
2017-11-24T12:16:32.282Z,2.60
2017-11-24T12:18:59.791Z,3.53
2017-11-24T12:21:27.287Z,2.80
2017-11-24T12:23:54.803Z,3.63
2017-11-24T12:26:22.341Z,3.43
2017-11-24T12:28:49.855Z,2.33
2017-11-24T12:31:17.359Z,3.07
2017-11-24T12:33:44.867Z,3.10
2017-11-24T12:36:12.395Z,2.63
2017-11-24T12:38:39.891Z,2.63
2017-11-24T12:41:07.418Z,2.90
2017-11-24T12:43:34.911Z,2.43
2017-11-24T12:46:02.423Z,2.27
2017-11-24T12:48:30.068Z,2.00
2017-11-24T12:50:57.558Z,2.70
2017-11-24T12:53:25.143Z,3.20
2017-11-24T12:55:52.706Z,2.90
2017-11-24T12:58:20.239Z,2.20
2017-11-24T13:00:47.878Z,3.37
2017-11-24T13:03:15.415Z,2.47
2017-11-24T13:05:42.933Z,1.90
2017-11-24T13:08:10.439Z,2.50
2017-11-24T13:10:37.936Z,2.00
2017-11-24T13:13:05.431Z,1.90
2017-11-24T13:15:32.948Z,1.83
2017-11-24T13:18:00.446Z,1.70
2017-11-24T13:20:27.967Z,2.20
2017-11-24T13:22:55.460Z,2.30
2017-11-24T13:25:22.961Z,2.27
2017-11-24T13:27:50.452Z,1.73
2017-11-24T13:30:17.964Z,1.93
2017-11-24T13:32:45.461Z,2.17
2017-11-24T13:35:12.971Z,2.13
2017-11-24T13:37:40.472Z,2.23
2017-11-24T13:40:07.985Z,1.70
2017-11-24T13:42:35.480Z,2.20
2017-11-24T13:45:03.068Z,2.00
2017-11-24T13:47:30.559Z,2.43
2017-11-24T13:49:58.130Z,1.27
2017-11-24T13:52:26.594Z,1.40
2017-11-24T13:54:54.132Z,1.80
2017-11-24T13:57:21.653Z,1.77
2017-11-24T13:59:49.163Z,1.90
2017-11-24T14:02:16.661Z,1.80
2017-11-24T14:04:44.172Z,2.63
2017-11-24T14:07:11.699Z,1.63
2017-11-24T14:09:39.230Z,1.80
2017-11-24T14:12:06.723Z,1.60
2017-11-24T14:14:34.216Z,1.80
2017-11-24T14:17:01.726Z,1.50
2017-11-24T14:19:29.225Z,1.37
2017-11-24T14:21:56.747Z,1.83
2017-11-24T14:24:24.233Z,1.80
2017-11-24T14:26:52.023Z,1.63
2017-11-24T14:29:19.542Z,2.00
2017-11-24T14:31:47.060Z,1.73
2017-11-24T14:34:14.562Z,1.43
2017-11-24T14:36:42.067Z,1.60
2017-11-24T14:39:09.577Z,1.70
2017-11-24T14:41:37.072Z,1.80
2017-11-24T14:44:04.565Z,1.73
2017-11-24T14:46:32.103Z,1.50
2017-11-24T14:48:59.599Z,1.97
2017-11-24T14:51:27.104Z,1.47
2017-11-24T14:53:54.604Z,1.37
2017-11-24T14:56:22.160Z,1.70
2017-11-24T14:58:49.694Z,1.90
2017-11-24T15:01:17.213Z,1.20
2017-11-24T15:03:44.762Z,1.40
2017-11-24T15:06:12.278Z,1.70
2017-11-24T15:08:39.775Z,1.43
2017-11-24T15:11:07.278Z,1.53
2017-11-24T15:13:34.821Z,1.87
2017-11-24T15:16:02.330Z,2.37
2017-11-24T15:18:29.862Z,2.23
2017-11-24T15:20:57.371Z,1.17
2017-11-24T15:23:24.893Z,1.80
2017-11-24T15:25:52.409Z,1.67
2017-11-24T15:28:19.919Z,1.87
2017-11-24T15:30:47.423Z,1.40
2017-11-24T15:33:14.923Z,1.47
2017-11-24T15:35:42.428Z,2.03
2017-11-24T15:38:09.931Z,1.77
2017-11-24T15:40:37.472Z,1.57
2017-11-24T15:43:05.054Z,1.90
2017-11-24T15:45:32.571Z,2.10
2017-11-24T15:48:00.079Z,1.80
2017-11-24T15:50:27.586Z,2.47
2017-11-24T15:52:55.120Z,2.60
2017-11-24T15:55:22.610Z,2.17
2017-11-24T15:57:50.114Z,2.30
2017-11-24T16:00:17.640Z,2.10
2017-11-24T16:02:45.162Z,2.10
2017-11-24T16:05:12.660Z,2.97
2017-11-24T16:07:40.202Z,2.90
2017-11-24T16:10:07.944Z,3.17
2017-11-24T16:12:35.474Z,3.20
2017-11-24T16:15:02.996Z,3.00
2017-11-24T16:17:30.507Z,3.00
2017-11-24T16:19:58.056Z,2.40
2017-11-24T16:22:25.570Z,3.37
2017-11-24T16:24:53.063Z,2.33
2017-11-24T16:27:20.597Z,2.37
2017-11-24T16:29:48.136Z,2.67
2017-11-24T16:32:15.731Z,3.10
2017-11-24T16:34:43.228Z,2.60
2017-11-24T16:37:10.747Z,2.50
2017-11-24T16:39:38.245Z,2.50
2017-11-24T16:42:05.762Z,2.87
2017-11-24T16:44:33.289Z,2.77
2017-11-24T16:47:00.912Z,3.50
2017-11-24T16:49:28.471Z,3.17
2017-11-24T16:51:56.035Z,3.27
2017-11-24T16:54:23.555Z,3.63
2017-11-24T16:56:51.105Z,3.80
2017-11-24T16:59:18.668Z,3.90
2017-11-24T17:01:46.219Z,3.30
2017-11-24T17:04:13.962Z,4.00
2017-11-24T17:06:42.413Z,4.30
2017-11-24T17:09:09.903Z,3.23
2017-11-24T17:11:37.418Z,4.00
2017-11-24T17:14:04.978Z,3.47
2017-11-24T17:16:32.497Z,4.60
2017-11-24T17:19:00.018Z,5.60
2017-11-24T17:21:27.515Z,4.23
2017-11-24T17:23:55.028Z,4.33
2017-11-24T17:26:22.539Z,4.33
2017-11-24T17:28:50.196Z,4.10
2017-11-24T17:31:17.709Z,4.23
2017-11-24T17:33:45.231Z,4.00
2017-11-24T17:36:12.756Z,3.50
2017-11-24T17:38:40.259Z,3.93
2017-11-24T17:41:07.755Z,3.50
2017-11-24T17:43:35.284Z,2.97
2017-11-24T17:46:02.857Z,3.40
2017-11-24T17:48:30.371Z,2.50
2017-11-24T17:50:57.877Z,2.70
2017-11-24T17:53:25.409Z,2.20
2017-11-24T17:55:52.914Z,3.00
2017-11-24T17:58:20.429Z,1.63
2017-11-24T18:00:47.927Z,2.13
2017-11-24T18:03:15.435Z,1.70
2017-11-24T18:05:42.979Z,2.93
2017-11-24T18:08:10.472Z,3.03
2017-11-24T18:10:37.977Z,2.40
2017-11-24T18:13:05.500Z,1.67
2017-11-24T18:15:33.018Z,1.80
2017-11-24T18:18:00.519Z,1.80
2017-11-24T18:20:28.032Z,1.50
2017-11-24T18:22:55.546Z,1.23
2017-11-24T18:25:23.049Z,1.10
2017-11-24T18:27:50.551Z,1.23
2017-11-24T18:30:18.082Z,1.23
2017-11-24T18:32:45.604Z,1.30
2017-11-24T18:35:13.118Z,1.43
2017-11-24T18:37:40.639Z,1.43
2017-11-24T18:40:08.167Z,1.30
2017-11-24T18:42:35.710Z,4.00
2017-11-24T18:45:03.248Z,4.27
2017-11-24T18:47:31.022Z,3.50
2017-11-24T18:49:58.531Z,1.90
2017-11-24T18:52:26.051Z,1.80
2017-11-24T18:54:53.691Z,1.50
2017-11-24T18:57:21.212Z,1.40
2017-11-24T18:59:48.712Z,1.33
2017-11-24T19:02:16.237Z,2.20
2017-11-24T19:04:43.755Z,1.40
2017-11-24T19:07:11.257Z,1.50
2017-11-24T19:09:38.795Z,1.40
2017-11-24T19:12:06.312Z,1.77
2017-11-24T19:14:33.823Z,1.50
2017-11-24T19:17:01.382Z,1.30
2017-11-24T19:19:28.908Z,1.27
2017-11-24T19:21:56.411Z,2.10
2017-11-24T19:24:25.570Z,1.60
2017-11-24T19:26:53.098Z,2.07
2017-11-24T19:29:20.604Z,1.80
2017-11-24T19:31:48.104Z,1.60
2017-11-24T19:34:15.611Z,1.63
2017-11-24T19:36:43.257Z,1.70
2017-11-24T19:39:10.746Z,2.73
2017-11-24T19:41:38.278Z,1.70
2017-11-24T19:44:05.828Z,2.00
2017-11-24T19:46:33.374Z,1.57
2017-11-24T19:49:00.944Z,1.70
2017-11-24T19:51:28.504Z,1.97
2017-11-24T19:53:56.084Z,1.73
2017-11-24T19:56:23.645Z,2.20
2017-11-24T19:58:51.308Z,2.90
2017-11-24T20:01:19.111Z,2.40
2017-11-24T20:03:46.968Z,2.60
2017-11-24T20:06:14.846Z,2.83
2017-11-24T20:08:42.701Z,2.07
2017-11-24T20:11:10.672Z,1.70
2017-11-24T20:13:38.533Z,3.00
2017-11-24T20:16:06.537Z,2.97
2017-11-24T20:18:34.473Z,2.80
2017-11-24T20:21:02.440Z,2.70
2017-11-24T20:23:30.307Z,3.13
2017-11-24T20:25:58.275Z,3.07
2017-11-24T20:28:26.241Z,2.80
2017-11-24T20:30:54.095Z,3.43
2017-11-24T20:33:22.178Z,3.10
2017-11-24T20:35:50.054Z,3.77
2017-11-24T20:38:18.034Z,3.50
2017-11-24T20:40:57.869Z,3.27
2017-11-24T20:43:25.825Z,3.37
2017-11-24T20:45:53.693Z,3.10
2017-11-24T20:48:21.663Z,17.47
2017-11-24T20:50:50.373Z,3.23
2017-11-24T20:53:18.320Z,3.20
2017-11-24T20:55:46.389Z,3.30
2017-11-24T20:58:14.565Z,2.97
2017-11-24T21:00:42.427Z,3.07
2017-11-24T21:03:10.293Z,3.20
2017-11-24T21:05:38.161Z,3.10
2017-11-24T21:08:06.023Z,3.90
2017-11-24T21:10:33.878Z,3.67
2017-11-24T21:13:01.654Z,3.60
2017-11-24T21:15:29.386Z,3.53
2017-11-24T21:17:57.074Z,7.73
2017-11-24T21:20:24.742Z,3.77
2017-11-24T21:22:52.278Z,5.07
2017-11-24T21:25:19.781Z,4.33
2017-11-24T21:27:47.299Z,3.73
2017-11-24T21:30:14.817Z,4.10
2017-11-24T21:32:42.381Z,3.93
2017-11-24T21:35:09.893Z,3.77
2017-11-24T21:37:37.403Z,5.43
2017-11-24T21:40:04.915Z,8.50
2017-11-24T21:42:32.417Z,4.93
2017-11-24T21:44:59.914Z,4.17
2017-11-24T21:47:27.417Z,3.67
2017-11-24T21:49:54.944Z,3.93
2017-11-24T21:52:22.435Z,3.50
2017-11-24T21:54:49.929Z,3.90
2017-11-24T21:57:17.478Z,4.03
2017-11-24T21:59:44.985Z,2.97
2017-11-24T22:02:12.487Z,3.40
2017-11-24T22:04:39.988Z,2.90
2017-11-24T22:07:07.549Z,3.10
2017-11-24T22:09:35.051Z,3.50
2017-11-24T22:12:02.705Z,4.13
2017-11-24T22:14:30.238Z,4.50
2017-11-24T22:16:57.740Z,4.40
2017-11-24T22:19:25.231Z,5.00
2017-11-24T22:21:52.742Z,4.93
2017-11-24T22:24:20.254Z,6.33
2017-11-24T22:26:47.788Z,5.07
2017-11-24T22:29:15.297Z,4.87
2017-11-24T22:31:42.791Z,5.50
2017-11-24T22:34:10.296Z,4.90
2017-11-24T22:36:37.817Z,5.53
2017-11-24T22:39:05.358Z,6.30
2017-11-24T22:41:32.877Z,5.93
2017-11-24T22:44:00.389Z,5.17
2017-11-24T22:46:27.929Z,5.10
2017-11-24T22:48:55.432Z,4.63
2017-11-24T22:51:22.930Z,3.90
2017-11-24T22:53:50.431Z,5.40
2017-11-24T22:56:17.934Z,4.90
2017-11-24T22:58:45.470Z,4.93
2017-11-24T23:01:12.993Z,5.80
2017-11-24T23:03:40.511Z,5.10
2017-11-24T23:06:08.025Z,4.70
2017-11-24T23:08:35.560Z,5.70
2017-11-24T23:11:03.069Z,5.07
2017-11-24T23:13:30.596Z,5.10
2017-11-24T23:15:58.091Z,4.00
2017-11-24T23:18:25.591Z,4.53
2017-11-24T23:20:53.102Z,3.10
2017-11-24T23:23:20.603Z,2.90
2017-11-24T23:25:48.097Z,3.27
2017-11-24T23:28:15.582Z,2.30
2017-11-24T23:30:43.099Z,2.57
2017-11-24T23:33:10.595Z,2.80
2017-11-24T23:35:38.105Z,3.20
2017-11-24T23:38:05.678Z,3.70
2017-11-24T23:40:33.180Z,3.30
2017-11-24T23:43:00.798Z,2.33
2017-11-24T23:45:28.297Z,3.00
2017-11-24T23:47:55.791Z,1.87
2017-11-24T23:50:23.281Z,1.97
2017-11-24T23:52:50.775Z,2.00
2017-11-24T23:55:18.270Z,1.77
2017-11-24T23:57:45.790Z,2.67
